アイウン の空港の天気 - METARとTAF

アイウン/ハッサン空港 ( GMML / EUN ) - 西サハラ アイウン
飛行場実況気象(Metar)
観測時間02/17 15:00 CET (02/17 14:00 UTC)
風向・風速北東 7m/s
視程8000m
天気現象
少しの雲 雲底高度 910m
気温23℃
湿度41%
気圧1020hPa
METARGMML 171400Z 04014KT 8000 FEW030 23/09 Q1020 NOSIG
過去の天気等 Google飛行場航空写真 Wunderground天気予報

過去48時間のMETAR

飛行場予報(TAF)
発表時間: 2/17 12:00 CET (2/17 11:00 UTC)
予報対象時間: 17日13時 CET ~ 18日19時 CET
風向・風速北東 9m/s
視程8000m
全天の4割程度の雲 雲底高度 820m
18日1時 CET ~ 18日3時 CET に徐々に
全天の4割程度の雲 雲底高度 300m
TAF GMML 171100Z 1712/1818 05018KT 8000 SCT027
BECMG 1800/1802 SCT010